createdAt,value
2023-04-29T00:00:22.246Z,26.69
2023-04-29T00:01:22.276Z,26.68
2023-04-29T00:02:22.433Z,26.68
2023-04-29T00:03:22.595Z,26.64
2023-04-29T00:04:22.534Z,26.66
2023-04-29T00:05:22.574Z,26.66
2023-04-29T00:06:22.692Z,26.68
2023-04-29T00:07:22.482Z,26.68
2023-04-29T00:08:22.513Z,26.68
2023-04-29T00:09:22.580Z,26.64
2023-04-29T00:10:22.624Z,26.66
2023-04-29T00:11:22.663Z,26.66
2023-04-29T00:12:22.672Z,26.66
2023-04-29T00:13:22.796Z,26.68
2023-04-29T00:14:22.744Z,26.66
2023-04-29T00:15:22.816Z,26.66
2023-04-29T00:16:22.874Z,26.66
2023-04-29T00:17:22.916Z,26.66
2023-04-29T00:18:22.943Z,26.68
2023-04-29T00:19:22.962Z,26.64
2023-04-29T00:20:23.028Z,26.66
2023-04-29T00:21:23.033Z,26.64
2023-04-29T00:22:23.082Z,26.68
2023-04-29T00:23:23.149Z,26.63
2023-04-29T00:24:23.145Z,26.68
2023-04-29T00:25:23.219Z,26.66
2023-04-29T00:26:23.207Z,26.66
2023-04-29T00:27:23.266Z,26.69
2023-04-29T00:28:23.315Z,26.68
2023-04-29T00:29:23.324Z,26.66
2023-04-29T00:30:23.390Z,26.66
2023-04-29T00:31:23.430Z,26.68
2023-04-29T00:32:23.441Z,26.66
2023-04-29T00:33:23.518Z,26.66
2023-04-29T00:34:23.547Z,26.68
2023-04-29T00:35:23.538Z,26.70
2023-04-29T00:36:23.574Z,26.66
2023-04-29T00:37:23.621Z,26.69
2023-04-29T00:38:23.661Z,26.69
2023-04-29T00:39:23.737Z,26.68
2023-04-29T00:40:23.749Z,26.69
2023-04-29T00:41:23.768Z,26.70
2023-04-29T00:42:23.818Z,26.66
2023-04-29T00:43:23.846Z,26.69
2023-04-29T00:44:23.937Z,26.69
2023-04-29T00:45:23.938Z,26.68
2023-04-29T00:46:24.004Z,26.68
2023-04-29T00:47:24.058Z,26.69
2023-04-29T00:48:24.078Z,26.66
2023-04-29T00:49:24.104Z,26.68
2023-04-29T00:50:24.171Z,26.69
2023-04-29T00:51:24.157Z,26.68
2023-04-29T00:52:24.152Z,26.68
2023-04-29T00:53:24.218Z,26.68
2023-04-29T00:54:24.277Z,26.69
2023-04-29T00:55:24.294Z,26.68
2023-04-29T00:56:24.277Z,26.68
2023-04-29T00:57:24.342Z,26.69
2023-04-29T00:58:24.351Z,26.66
2023-04-29T00:59:24.400Z,26.70
2023-04-29T01:00:24.472Z,26.68
2023-04-29T01:01:24.503Z,26.68
2023-04-29T01:02:24.578Z,26.68
2023-04-29T01:03:24.624Z,26.68
2023-04-29T01:04:24.725Z,26.70
2023-04-29T01:05:24.635Z,26.69
2023-04-29T01:06:24.697Z,26.68
2023-04-29T01:07:24.704Z,26.68
2023-04-29T01:08:24.759Z,26.72
2023-04-29T01:09:24.802Z,26.69
2023-04-29T01:10:24.858Z,26.68
2023-04-29T01:11:24.871Z,26.68
2023-04-29T01:12:24.913Z,26.69
2023-04-29T01:13:24.932Z,26.69
2023-04-29T01:14:24.967Z,26.69
2023-04-29T01:15:25.018Z,26.70
2023-04-29T01:16:25.101Z,26.69
2023-04-29T01:17:25.155Z,26.70
2023-04-29T01:18:25.145Z,26.69
2023-04-29T01:19:25.163Z,26.68
2023-04-29T01:20:25.218Z,26.68
2023-04-29T01:21:25.300Z,26.69
2023-04-29T01:22:25.288Z,26.69
2023-04-29T01:23:25.378Z,26.68
2023-04-29T01:24:25.386Z,26.66
2023-04-29T01:25:25.408Z,26.68
2023-04-29T01:26:25.484Z,26.69
2023-04-29T01:27:25.509Z,26.68
2023-04-29T01:28:25.524Z,26.68
2023-04-29T01:29:25.579Z,26.69
2023-04-29T01:30:25.642Z,26.70
2023-04-29T01:31:25.736Z,26.68
2023-04-29T01:32:25.720Z,26.66
2023-04-29T01:33:25.740Z,26.69
2023-04-29T01:34:25.750Z,26.70
2023-04-29T01:35:25.829Z,26.66
2023-04-29T01:36:25.876Z,26.66
2023-04-29T01:37:25.879Z,26.68
2023-04-29T01:38:25.946Z,26.68
2023-04-29T01:39:25.967Z,26.69
2023-04-29T01:40:26.040Z,26.70
2023-04-29T01:41:26.085Z,26.68
2023-04-29T01:42:26.092Z,26.69
2023-04-29T01:43:26.157Z,26.66
2023-04-29T01:44:26.195Z,26.68
2023-04-29T01:45:26.254Z,26.68
2023-04-29T01:46:26.404Z,26.69
2023-04-29T01:47:26.336Z,26.68
2023-04-29T01:48:26.380Z,26.68
2023-04-29T01:49:26.450Z,26.64
2023-04-29T01:50:26.448Z,26.68
2023-04-29T01:51:26.489Z,26.68
2023-04-29T01:52:26.497Z,26.66
2023-04-29T01:53:26.588Z,26.66
2023-04-29T01:54:26.554Z,26.69
2023-04-29T01:55:26.617Z,26.68
2023-04-29T01:56:26.684Z,26.69
2023-04-29T01:57:26.706Z,26.66
2023-04-29T01:58:26.729Z,26.68
2023-04-29T01:59:26.755Z,26.69
2023-04-29T02:00:26.818Z,26.66
2023-04-29T02:01:26.838Z,26.68
2023-04-29T02:02:26.935Z,26.68
2023-04-29T02:03:27.039Z,26.68
2023-04-29T02:04:27.033Z,26.68
2023-04-29T02:05:27.028Z,26.68
2023-04-29T02:06:27.050Z,26.68
2023-04-29T02:07:27.082Z,26.68
2023-04-29T02:08:27.158Z,26.68
2023-04-29T02:09:27.196Z,26.69
2023-04-29T02:10:27.252Z,26.66
2023-04-29T02:11:27.261Z,26.68
2023-04-29T02:12:27.301Z,26.69
2023-04-29T02:13:27.351Z,26.69
2023-04-29T02:14:27.352Z,26.66
2023-04-29T02:15:27.407Z,26.66
2023-04-29T02:16:27.480Z,26.68
2023-04-29T02:17:27.511Z,26.68
2023-04-29T02:18:27.495Z,26.64
2023-04-29T02:19:27.583Z,26.68
2023-04-29T02:20:27.617Z,26.68
2023-04-29T02:21:27.643Z,26.68
2023-04-29T02:22:27.698Z,26.69
2023-04-29T02:23:27.728Z,26.68
2023-04-29T02:24:27.779Z,26.68
2023-04-29T02:25:27.774Z,26.68
2023-04-29T02:26:27.814Z,26.69
2023-04-29T02:27:27.833Z,26.70
2023-04-29T02:28:27.913Z,26.68
2023-04-29T02:29:27.924Z,26.69
2023-04-29T02:30:27.957Z,26.69
2023-04-29T02:31:28.054Z,26.66
2023-04-29T02:32:28.067Z,26.66
2023-04-29T02:33:28.084Z,26.69
2023-04-29T02:34:28.151Z,26.68
2023-04-29T02:35:28.182Z,26.66
2023-04-29T02:36:28.251Z,26.69
2023-04-29T02:37:28.278Z,26.69
2023-04-29T02:38:28.314Z,26.66
2023-04-29T02:39:28.340Z,26.64
2023-04-29T02:40:28.396Z,26.68
2023-04-29T02:41:28.402Z,26.68
2023-04-29T02:42:28.460Z,26.68
2023-04-29T02:43:28.512Z,26.69
2023-04-29T02:44:28.555Z,26.68
2023-04-29T02:45:28.613Z,26.69
2023-04-29T02:46:28.875Z,26.68
2023-04-29T02:47:28.749Z,26.69
2023-04-29T02:48:28.750Z,26.69
2023-04-29T02:49:28.767Z,26.68
2023-04-29T02:50:28.799Z,26.66
2023-04-29T02:51:28.866Z,26.66
2023-04-29T02:52:28.935Z,26.68
2023-04-29T02:53:28.942Z,26.69
2023-04-29T02:54:28.963Z,26.69
2023-04-29T02:55:29.058Z,26.68
2023-04-29T02:56:29.081Z,26.68
2023-04-29T02:57:29.114Z,26.69
2023-04-29T02:58:29.181Z,26.69
2023-04-29T02:59:29.219Z,26.66
2023-04-29T03:00:29.220Z,26.66
2023-04-29T03:01:29.333Z,26.70
2023-04-29T03:02:29.441Z,26.70
2023-04-29T03:03:29.542Z,26.68
2023-04-29T03:04:29.563Z,26.68
2023-04-29T03:05:29.494Z,26.69
2023-04-29T03:06:29.537Z,26.69
2023-04-29T03:07:29.571Z,26.68
2023-04-29T03:08:29.600Z,26.68
2023-04-29T03:09:29.640Z,26.66
2023-04-29T03:10:29.718Z,26.66
2023-04-29T03:11:29.735Z,26.68
2023-04-29T03:12:29.759Z,26.66
2023-04-29T03:13:29.829Z,26.68
2023-04-29T03:14:29.852Z,26.66
2023-04-29T03:15:29.916Z,26.68
2023-04-29T03:16:29.959Z,26.68
2023-04-29T03:17:29.964Z,26.64
2023-04-29T03:18:30.042Z,26.69
2023-04-29T03:19:30.044Z,26.66
2023-04-29T03:20:30.099Z,26.64
2023-04-29T03:21:30.168Z,26.66
2023-04-29T03:22:30.207Z,26.66
2023-04-29T03:23:30.278Z,26.68
2023-04-29T03:24:30.325Z,26.68
2023-04-29T03:25:30.339Z,26.68
2023-04-29T03:26:30.384Z,26.63
2023-04-29T03:27:30.448Z,26.66
2023-04-29T03:28:30.524Z,26.68
2023-04-29T03:29:30.554Z,26.69
2023-04-29T03:30:30.613Z,26.64
2023-04-29T03:31:30.688Z,26.64
2023-04-29T03:32:30.721Z,26.68
2023-04-29T03:33:30.755Z,26.68
2023-04-29T03:34:30.776Z,26.69
2023-04-29T03:35:30.837Z,26.66
2023-04-29T03:36:30.888Z,26.66
2023-04-29T03:37:30.930Z,26.66
2023-04-29T03:38:30.979Z,26.64
2023-04-29T03:39:31.002Z,26.66
2023-04-29T03:40:31.078Z,26.68
2023-04-29T03:41:31.146Z,26.66
2023-04-29T03:42:31.209Z,26.69
2023-04-29T03:43:31.233Z,26.68
2023-04-29T03:44:31.278Z,26.68
2023-04-29T03:45:31.347Z,26.64
2023-04-29T03:46:31.358Z,26.68
2023-04-29T03:47:31.408Z,26.68
2023-04-29T03:48:31.422Z,26.66
2023-04-29T03:49:31.537Z,26.66
2023-04-29T03:50:31.537Z,26.66
2023-04-29T03:51:31.577Z,26.66
2023-04-29T03:52:31.592Z,26.64
2023-04-29T03:53:31.651Z,26.66
2023-04-29T03:54:31.714Z,26.68
2023-04-29T03:55:31.733Z,26.66
2023-04-29T03:56:31.802Z,26.66
2023-04-29T03:57:31.842Z,26.66
2023-04-29T03:58:31.852Z,26.66
2023-04-29T03:59:31.915Z,26.68
2023-04-29T04:00:31.973Z,26.64
2023-04-29T04:01:32.016Z,26.66
2023-04-29T04:02:32.126Z,26.66
2023-04-29T04:03:32.210Z,26.66
2023-04-29T04:04:32.453Z,26.66
2023-04-29T04:05:32.250Z,26.66
2023-04-29T04:06:32.257Z,26.68
2023-04-29T04:07:32.299Z,26.64
2023-04-29T04:08:32.351Z,26.64
2023-04-29T04:09:32.399Z,26.66
2023-04-29T04:10:32.451Z,26.68
2023-04-29T04:11:32.463Z,26.64
2023-04-29T04:12:32.523Z,26.66
2023-04-29T04:13:32.555Z,26.66
2023-04-29T04:14:32.612Z,26.66
2023-04-29T04:15:32.628Z,26.66
2023-04-29T04:16:32.779Z,26.64
2023-04-29T04:17:32.756Z,26.66
2023-04-29T04:18:32.780Z,26.66
2023-04-29T04:19:32.820Z,26.64
2023-04-29T04:20:32.913Z,26.66
2023-04-29T04:21:32.929Z,26.66
2023-04-29T04:22:32.987Z,26.68
2023-04-29T04:23:33.065Z,26.66
2023-04-29T04:24:33.074Z,26.64
2023-04-29T04:25:33.105Z,26.64
2023-04-29T04:26:33.159Z,26.66
2023-04-29T04:27:33.195Z,26.66
2023-04-29T04:28:33.237Z,26.69
2023-04-29T04:29:33.265Z,26.66
2023-04-29T04:30:33.314Z,26.68
2023-04-29T04:31:33.506Z,26.64
2023-04-29T04:32:33.525Z,26.68
2023-04-29T04:33:33.472Z,26.66
2023-04-29T04:34:33.481Z,26.68
2023-04-29T04:35:33.535Z,26.68
2023-04-29T04:36:33.576Z,26.68
2023-04-29T04:37:33.631Z,26.64
2023-04-29T04:38:33.695Z,26.66
2023-04-29T04:39:33.734Z,26.66
2023-04-29T04:40:33.761Z,26.66
2023-04-29T04:41:33.836Z,26.64
2023-04-29T04:42:33.869Z,26.66
2023-04-29T04:43:33.904Z,26.66
2023-04-29T04:44:33.945Z,26.66
2023-04-29T04:45:34.052Z,26.63
2023-04-29T04:46:34.050Z,26.66
2023-04-29T04:47:34.155Z,26.64
2023-04-29T04:48:34.170Z,26.64
2023-04-29T04:49:34.223Z,26.64
2023-04-29T04:50:34.277Z,26.66
2023-04-29T04:51:34.295Z,26.64
2023-04-29T04:52:34.335Z,26.64
2023-04-29T04:53:34.377Z,26.64
2023-04-29T04:54:34.471Z,26.64
2023-04-29T04:55:34.489Z,26.64
2023-04-29T04:56:34.554Z,26.66
2023-04-29T04:57:34.577Z,26.64
2023-04-29T04:58:34.603Z,26.66
2023-04-29T04:59:34.666Z,26.66
2023-04-29T05:00:34.690Z,26.66
2023-04-29T05:01:34.825Z,26.62
2023-04-29T05:02:34.863Z,26.66
2023-04-29T05:03:34.916Z,26.68
2023-04-29T05:04:34.859Z,26.64
2023-04-29T05:05:34.908Z,26.64
2023-04-29T05:06:34.975Z,26.68
2023-04-29T05:07:34.983Z,26.63
2023-04-29T05:08:35.040Z,26.64
2023-04-29T05:09:35.096Z,26.64
2023-04-29T05:10:35.177Z,26.66
2023-04-29T05:11:35.213Z,26.66
2023-04-29T05:12:35.243Z,26.66
2023-04-29T05:13:35.328Z,26.64
2023-04-29T05:14:35.315Z,26.64
2023-04-29T05:15:35.369Z,26.64
2023-04-29T05:16:35.490Z,26.63
2023-04-29T05:17:35.510Z,26.66
2023-04-29T05:18:35.492Z,26.64
2023-04-29T05:19:35.517Z,26.64
2023-04-29T05:20:35.573Z,26.64
2023-04-29T05:21:35.624Z,26.66
2023-04-29T05:22:35.687Z,26.64
2023-04-29T05:23:35.765Z,26.66
2023-04-29T05:24:35.781Z,26.66
2023-04-29T05:25:35.833Z,26.64
2023-04-29T05:26:35.891Z,26.62
2023-04-29T05:27:35.896Z,26.66
2023-04-29T05:28:35.945Z,26.64
2023-04-29T05:29:36.005Z,26.64
2023-04-29T05:30:36.139Z,26.68
2023-04-29T05:31:36.086Z,26.68
2023-04-29T05:32:36.164Z,26.66
2023-04-29T05:33:36.180Z,26.64
2023-04-29T05:34:36.247Z,26.68
2023-04-29T05:35:36.318Z,26.66
2023-04-29T05:36:36.319Z,26.66
2023-04-29T05:37:36.387Z,26.68
2023-04-29T05:38:36.398Z,26.66
2023-04-29T05:39:36.459Z,26.69
2023-04-29T05:40:36.530Z,26.64
2023-04-29T05:41:36.536Z,26.66
2023-04-29T05:42:36.600Z,26.66
2023-04-29T05:43:37.018Z,26.69
2023-04-29T05:44:36.655Z,26.64
2023-04-29T05:45:36.704Z,26.68
2023-04-29T05:46:36.823Z,26.66
2023-04-29T05:47:36.868Z,26.68
2023-04-29T05:48:36.852Z,26.66
2023-04-29T05:49:36.920Z,26.69
2023-04-29T05:50:36.926Z,26.66
2023-04-29T05:51:36.976Z,26.68
2023-04-29T05:52:37.013Z,26.66
2023-04-29T05:53:37.034Z,26.66
2023-04-29T05:54:37.077Z,26.68
2023-04-29T05:55:37.187Z,26.68
2023-04-29T05:56:37.205Z,26.69
2023-04-29T05:57:37.232Z,26.68
2023-04-29T05:58:37.311Z,26.68
2023-04-29T05:59:37.357Z,26.69
2023-04-29T06:00:37.396Z,26.66
2023-04-29T06:01:37.434Z,26.68
2023-04-29T06:02:41.502Z,26.69
2023-04-29T06:03:38.705Z,26.70
2023-04-29T06:04:37.828Z,26.68
2023-04-29T06:05:37.834Z,26.72
2023-04-29T06:06:37.458Z,26.68
2023-04-29T06:07:37.398Z,26.70
2023-04-29T06:08:37.389Z,26.69
2023-04-29T06:09:37.414Z,26.72
2023-04-29T06:10:37.392Z,26.69
2023-04-29T06:11:37.373Z,26.68
2023-04-29T06:12:37.362Z,26.70
2023-04-29T06:13:37.346Z,26.69
2023-04-29T06:14:37.405Z,26.70
2023-04-29T06:15:37.439Z,26.69
2023-04-29T06:16:37.517Z,26.69
2023-04-29T06:17:37.586Z,26.72
2023-04-29T06:18:37.563Z,26.70
2023-04-29T06:19:37.639Z,26.72
2023-04-29T06:20:37.753Z,26.72
2023-04-29T06:21:37.699Z,26.72
2023-04-29T06:22:37.738Z,26.70
2023-04-29T06:23:37.806Z,26.72
2023-04-29T06:24:37.839Z,26.72
2023-04-29T06:25:37.888Z,26.72
2023-04-29T06:26:37.931Z,26.72
2023-04-29T06:27:37.927Z,26.72
2023-04-29T06:28:37.984Z,26.73
2023-04-29T06:29:38.006Z,26.72
2023-04-29T06:30:38.102Z,26.70
2023-04-29T06:31:38.116Z,26.75
2023-04-29T06:32:38.261Z,26.72
2023-04-29T06:33:38.178Z,26.72
2023-04-29T06:34:38.207Z,26.73
2023-04-29T06:35:38.284Z,26.73
2023-04-29T06:36:38.341Z,26.73
2023-04-29T06:37:38.422Z,26.75
2023-04-29T06:38:38.411Z,26.75
2023-04-29T06:39:38.519Z,26.73
2023-04-29T06:40:38.521Z,26.73
2023-04-29T06:41:38.577Z,26.76
2023-04-29T06:42:38.611Z,26.73
2023-04-29T06:43:38.631Z,26.75
2023-04-29T06:44:38.709Z,26.76
2023-04-29T06:45:38.727Z,26.73
2023-04-29T06:46:38.906Z,26.76
2023-04-29T06:47:38.827Z,26.75
2023-04-29T06:48:38.888Z,26.75
2023-04-29T06:49:38.903Z,26.75
2023-04-29T06:50:38.954Z,26.76
2023-04-29T06:51:38.975Z,26.75
2023-04-29T06:52:39.012Z,26.75
2023-04-29T06:53:39.073Z,26.78
2023-04-29T06:54:39.087Z,26.78
2023-04-29T06:55:39.152Z,26.79
2023-04-29T06:56:39.186Z,26.82
2023-04-29T06:57:39.231Z,26.78
2023-04-29T06:58:39.228Z,26.79
2023-04-29T06:59:39.253Z,26.79
2023-04-29T07:00:39.309Z,26.80
2023-04-29T07:01:40.755Z,26.80
2023-04-29T07:02:39.516Z,26.78
2023-04-29T07:03:39.545Z,26.78
2023-04-29T07:04:39.390Z,26.80
2023-04-29T07:05:39.296Z,26.80
2023-04-29T07:06:39.275Z,26.79
2023-04-29T07:07:39.275Z,26.80
2023-04-29T07:08:39.270Z,26.80
2023-04-29T07:09:39.231Z,26.82
2023-04-29T07:10:39.257Z,26.82
2023-04-29T07:11:39.256Z,26.80
2023-04-29T07:12:39.225Z,26.82
2023-04-29T07:13:39.222Z,26.79
2023-04-29T07:14:39.182Z,26.83
2023-04-29T07:15:39.176Z,26.83
2023-04-29T07:16:39.220Z,26.79
2023-04-29T07:17:39.208Z,26.80
2023-04-29T07:18:39.168Z,26.83
2023-04-29T07:19:39.130Z,26.86
2023-04-29T07:20:39.111Z,26.85
2023-04-29T07:21:39.123Z,26.83
2023-04-29T07:22:39.112Z,26.82
2023-04-29T07:23:39.101Z,26.83
2023-04-29T07:24:39.066Z,26.85
2023-04-29T07:25:39.091Z,26.85
2023-04-29T07:26:39.072Z,26.82
2023-04-29T07:27:39.027Z,26.83
2023-04-29T07:28:38.998Z,26.83
2023-04-29T07:29:39.016Z,26.82
2023-04-29T07:30:38.996Z,26.85
2023-04-29T07:31:38.999Z,26.85
2023-04-29T07:32:38.971Z,26.85
2023-04-29T07:33:38.953Z,26.83
2023-04-29T07:34:38.974Z,26.86
2023-04-29T07:35:38.937Z,26.85
2023-04-29T07:36:38.933Z,26.87
2023-04-29T07:37:38.932Z,26.86
2023-04-29T07:38:38.904Z,26.83
2023-04-29T07:39:38.854Z,26.86
2023-04-29T07:40:38.829Z,26.87
2023-04-29T07:41:38.879Z,26.87
2023-04-29T07:42:38.813Z,26.86
2023-04-29T07:43:40.261Z,26.87
2023-04-29T07:44:38.823Z,26.86
2023-04-29T07:45:38.782Z,26.86
2023-04-29T07:46:38.919Z,26.87
2023-04-29T07:47:38.795Z,26.87
2023-04-29T07:48:38.746Z,26.86
2023-04-29T07:49:38.740Z,26.87
2023-04-29T07:50:38.774Z,26.87
2023-04-29T07:51:38.736Z,26.85
2023-04-29T07:52:38.724Z,26.86
2023-04-29T07:53:38.688Z,26.86
2023-04-29T07:54:38.670Z,26.89
2023-04-29T07:55:38.669Z,26.86
2023-04-29T07:56:38.661Z,26.90
2023-04-29T07:57:38.646Z,26.89
2023-04-29T07:58:38.638Z,26.87
2023-04-29T07:59:38.579Z,26.89
2023-04-29T08:00:38.657Z,26.90
2023-04-29T08:01:38.570Z,26.89
2023-04-29T08:02:38.697Z,26.87
2023-04-29T08:03:41.219Z,26.87
2023-04-29T08:04:38.662Z,26.90
2023-04-29T08:05:38.592Z,26.90
2023-04-29T08:06:38.508Z,26.87
2023-04-29T08:07:38.538Z,26.90
2023-04-29T08:08:38.530Z,26.89
2023-04-29T08:09:38.501Z,26.90
2023-04-29T08:10:38.531Z,26.91
2023-04-29T08:11:38.452Z,26.90
2023-04-29T08:12:38.429Z,26.90
2023-04-29T08:13:38.478Z,26.90
2023-04-29T08:14:38.415Z,26.89
2023-04-29T08:15:38.445Z,26.91
2023-04-29T08:16:38.462Z,26.93
2023-04-29T08:17:38.510Z,26.91
2023-04-29T08:18:38.916Z,26.93
2023-04-29T08:19:38.385Z,26.91
2023-04-29T08:20:38.380Z,26.89
2023-04-29T08:21:38.369Z,26.93
2023-04-29T08:22:38.359Z,26.93
2023-04-29T08:23:38.350Z,26.93
2023-04-29T08:24:38.320Z,26.90
2023-04-29T08:25:38.280Z,26.93
2023-04-29T08:26:38.276Z,26.94
2023-04-29T08:27:38.273Z,26.93
2023-04-29T08:28:38.237Z,26.96
2023-04-29T08:29:38.207Z,26.96
2023-04-29T08:30:38.214Z,26.94
2023-04-29T08:31:38.304Z,26.94
2023-04-29T08:32:38.224Z,26.94
2023-04-29T08:33:38.210Z,26.93
2023-04-29T08:34:38.144Z,26.96
2023-04-29T08:35:38.114Z,26.94
2023-04-29T08:36:38.112Z,26.96
2023-04-29T08:37:38.105Z,26.97
2023-04-29T08:38:38.113Z,26.96
2023-04-29T08:39:38.076Z,26.97
2023-04-29T08:40:38.081Z,26.99
2023-04-29T08:41:38.048Z,26.97
2023-04-29T08:42:38.040Z,26.99
2023-04-29T08:43:38.025Z,26.97
2023-04-29T08:44:37.985Z,26.97
2023-04-29T08:45:38.011Z,26.97
2023-04-29T08:46:37.970Z,27.00
2023-04-29T08:47:38.040Z,26.99
2023-04-29T08:48:38.014Z,27.00
2023-04-29T08:49:37.958Z,27.00
2023-04-29T08:50:37.932Z,27.00
2023-04-29T08:51:37.946Z,27.00
2023-04-29T08:52:37.956Z,27.01
2023-04-29T08:53:37.957Z,27.00
2023-04-29T08:54:37.999Z,27.00
2023-04-29T08:55:38.039Z,27.01
2023-04-29T08:56:38.058Z,27.01
2023-04-29T08:57:38.059Z,27.00
2023-04-29T08:58:38.086Z,27.00
2023-04-29T08:59:38.134Z,27.01
2023-04-29T09:00:38.112Z,27.01
2023-04-29T09:01:38.302Z,27.01
2023-04-29T09:02:38.236Z,27.03
2023-04-29T09:03:38.327Z,27.00
2023-04-29T09:04:38.267Z,27.03
2023-04-29T09:05:38.270Z,27.00
2023-04-29T09:06:38.309Z,27.04
2023-04-29T09:07:38.302Z,27.01
2023-04-29T09:08:38.355Z,27.04
2023-04-29T09:09:38.387Z,27.03
2023-04-29T09:10:38.404Z,27.03
2023-04-29T09:11:38.417Z,27.06
2023-04-29T09:12:38.452Z,27.04
2023-04-29T09:13:38.470Z,27.04
2023-04-29T09:14:38.460Z,27.03
2023-04-29T09:15:38.490Z,27.04
2023-04-29T09:16:38.616Z,27.03
2023-04-29T09:17:38.586Z,27.04
2023-04-29T09:18:38.558Z,27.04
2023-04-29T09:19:38.628Z,27.04
2023-04-29T09:20:38.624Z,27.06
2023-04-29T09:21:38.646Z,27.04
2023-04-29T09:22:38.652Z,27.04
2023-04-29T09:23:38.677Z,27.06
2023-04-29T09:24:38.708Z,27.06
2023-04-29T09:25:38.712Z,27.07
2023-04-29T09:26:38.756Z,27.06
2023-04-29T09:27:38.776Z,27.09
2023-04-29T09:28:38.812Z,27.09
2023-04-29T09:29:38.829Z,27.06
2023-04-29T09:30:38.900Z,27.09
2023-04-29T09:31:38.937Z,27.07
2023-04-29T09:32:39.485Z,27.10
2023-04-29T09:33:38.932Z,27.06
2023-04-29T09:34:38.932Z,27.10
2023-04-29T09:35:38.981Z,27.09
2023-04-29T09:36:39.036Z,27.09
2023-04-29T09:37:39.035Z,27.11
2023-04-29T09:38:39.009Z,27.10
2023-04-29T09:39:39.077Z,27.09
2023-04-29T09:40:54.418Z,27.10
2023-04-29T09:41:40.053Z,27.10
2023-04-29T09:42:39.035Z,27.10
2023-04-29T09:43:39.045Z,27.10
2023-04-29T09:44:38.989Z,27.11
2023-04-29T09:45:38.959Z,27.10
2023-04-29T09:46:39.077Z,27.13
2023-04-29T09:47:38.999Z,27.13
2023-04-29T09:48:38.958Z,27.14
2023-04-29T09:49:38.973Z,27.11
2023-04-29T09:50:38.914Z,27.13
2023-04-29T09:51:38.888Z,27.14
2023-04-29T09:52:38.905Z,27.11
2023-04-29T09:53:38.874Z,27.14
2023-04-29T09:54:38.848Z,27.13
2023-04-29T09:55:38.842Z,27.13
2023-04-29T09:56:38.832Z,27.14
2023-04-29T09:57:38.780Z,27.15
2023-04-29T09:58:38.785Z,27.14
2023-04-29T09:59:38.774Z,27.13
2023-04-29T10:00:38.796Z,27.14
2023-04-29T10:01:38.796Z,27.14
2023-04-29T10:02:38.832Z,27.14
2023-04-29T10:03:39.372Z,27.14
2023-04-29T10:04:40.103Z,27.13
2023-04-29T10:05:38.916Z,27.14
2023-04-29T10:06:38.882Z,27.14
2023-04-29T10:07:38.888Z,27.13
2023-04-29T10:08:38.922Z,27.14
2023-04-29T10:09:38.929Z,27.13
2023-04-29T10:10:38.935Z,27.14
2023-04-29T10:11:38.938Z,27.14
2023-04-29T10:12:38.996Z,27.14
2023-04-29T10:13:39.102Z,27.11
2023-04-29T10:14:39.061Z,27.15
2023-04-29T10:15:39.047Z,27.14
2023-04-29T10:16:39.047Z,27.14
2023-04-29T10:17:39.055Z,27.15
2023-04-29T10:18:39.058Z,27.15
2023-04-29T10:19:39.067Z,27.17
2023-04-29T10:20:39.066Z,27.14
2023-04-29T10:21:39.129Z,27.14
2023-04-29T10:22:39.140Z,27.15
2023-04-29T10:23:39.137Z,27.15
2023-04-29T10:24:39.181Z,27.14
2023-04-29T10:25:39.192Z,27.15
2023-04-29T10:26:39.234Z,27.15
2023-04-29T10:27:39.222Z,27.17
2023-04-29T10:28:39.199Z,27.15
2023-04-29T10:29:39.249Z,27.15
2023-04-29T10:30:39.242Z,27.17
2023-04-29T10:31:39.351Z,27.15
2023-04-29T10:32:50.429Z,27.18
2023-04-29T10:33:40.285Z,27.18
2023-04-29T10:34:39.237Z,27.18
2023-04-29T10:35:39.232Z,27.17
2023-04-29T10:36:39.191Z,27.15
2023-04-29T10:37:39.201Z,27.17
2023-04-29T10:38:39.187Z,27.18
2023-04-29T10:39:39.125Z,27.20
2023-04-29T10:40:39.124Z,27.18
2023-04-29T10:41:39.106Z,27.17
2023-04-29T10:42:39.084Z,27.17
2023-04-29T10:43:39.092Z,27.20
2023-04-29T10:44:39.054Z,27.20
2023-04-29T10:45:39.033Z,27.20
2023-04-29T10:46:39.115Z,27.18
2023-04-29T10:47:39.062Z,27.20
2023-04-29T10:48:39.015Z,27.17
2023-04-29T10:49:38.983Z,27.23
2023-04-29T10:50:38.952Z,27.20
2023-04-29T10:51:38.944Z,27.20
2023-04-29T10:52:38.937Z,27.21
2023-04-29T10:53:38.910Z,27.21
2023-04-29T10:54:38.908Z,27.23
2023-04-29T10:55:38.896Z,27.20
2023-04-29T10:56:38.901Z,27.21
2023-04-29T10:57:38.912Z,27.21
2023-04-29T10:58:38.947Z,27.23
2023-04-29T10:59:38.941Z,27.23
2023-04-29T11:00:38.951Z,27.23
2023-04-29T11:01:39.027Z,27.21
2023-04-29T11:02:39.013Z,27.23
2023-04-29T11:03:39.180Z,27.21
2023-04-29T11:04:39.056Z,27.24
2023-04-29T11:05:38.994Z,27.24
2023-04-29T11:06:39.046Z,27.24
2023-04-29T11:07:39.016Z,27.27
2023-04-29T11:08:39.034Z,27.26
2023-04-29T11:09:39.016Z,27.24
2023-04-29T11:10:39.088Z,27.26
2023-04-29T11:11:39.039Z,27.27
2023-04-29T11:12:39.079Z,27.27
2023-04-29T11:13:39.057Z,27.26
2023-04-29T11:14:39.064Z,27.27
2023-04-29T11:15:39.101Z,27.27
2023-04-29T11:16:39.114Z,27.24
2023-04-29T11:17:39.148Z,27.24
2023-04-29T11:18:39.087Z,27.26
2023-04-29T11:19:39.118Z,27.27
2023-04-29T11:20:39.103Z,27.23
2023-04-29T11:21:39.104Z,27.27
2023-04-29T11:22:39.122Z,27.26
2023-04-29T11:23:39.120Z,27.27
2023-04-29T11:24:39.114Z,27.27
2023-04-29T11:25:39.690Z,27.27
2023-04-29T11:26:39.179Z,27.29
2023-04-29T11:27:39.184Z,27.26
2023-04-29T11:28:39.132Z,27.27
2023-04-29T11:29:39.152Z,27.27
2023-04-29T11:30:39.144Z,27.23
2023-04-29T11:31:39.288Z,27.27
2023-04-29T11:32:39.369Z,27.26
2023-04-29T11:33:39.196Z,27.26
2023-04-29T11:34:39.160Z,27.26
2023-04-29T11:35:39.171Z,27.24
2023-04-29T11:36:39.239Z,27.23
2023-04-29T11:37:39.224Z,27.26
2023-04-29T11:38:39.232Z,27.23
2023-04-29T11:39:39.228Z,27.23
2023-04-29T11:40:39.222Z,27.21
2023-04-29T11:41:39.251Z,27.23
2023-04-29T11:42:39.275Z,27.18
2023-04-29T11:43:39.242Z,27.21
2023-04-29T11:44:39.291Z,27.20
2023-04-29T11:45:39.331Z,27.18
2023-04-29T11:46:39.398Z,27.17
2023-04-29T11:47:39.366Z,27.20
2023-04-29T11:48:39.293Z,27.17
2023-04-29T11:49:39.355Z,27.18
2023-04-29T11:50:39.362Z,27.15
2023-04-29T11:51:39.371Z,27.17
2023-04-29T11:52:39.402Z,27.17
2023-04-29T11:53:39.415Z,27.17
2023-04-29T11:54:39.416Z,27.14
2023-04-29T11:55:39.523Z,27.17
2023-04-29T11:56:39.419Z,27.17
2023-04-29T11:57:39.438Z,27.15
2023-04-29T11:58:39.453Z,27.15
2023-04-29T11:59:39.468Z,27.15
2023-04-29T12:00:39.483Z,27.17
2023-04-29T12:01:39.459Z,27.15
2023-04-29T12:02:39.579Z,27.14
2023-04-29T12:03:39.640Z,27.17
2023-04-29T12:04:39.677Z,27.17
2023-04-29T12:05:39.563Z,27.20
2023-04-29T12:06:39.539Z,27.18
2023-04-29T12:07:39.555Z,27.18
2023-04-29T12:08:39.552Z,27.18
2023-04-29T12:09:39.574Z,27.18
2023-04-29T12:10:39.564Z,27.21
2023-04-29T12:11:39.589Z,27.21
2023-04-29T12:12:39.606Z,27.20
2023-04-29T12:13:39.611Z,27.20
2023-04-29T12:14:39.594Z,27.20
2023-04-29T12:15:40.238Z,27.21
2023-04-29T12:16:39.669Z,27.18
2023-04-29T12:17:39.699Z,27.24
2023-04-29T12:18:39.645Z,27.21
2023-04-29T12:19:39.651Z,27.23
2023-04-29T12:20:39.670Z,27.21
2023-04-29T12:21:39.653Z,27.23
2023-04-29T12:22:39.639Z,27.23
2023-04-29T12:23:39.656Z,27.26
2023-04-29T12:24:39.650Z,27.24
2023-04-29T12:25:39.703Z,27.26
2023-04-29T12:26:39.708Z,27.27
2023-04-29T12:27:39.718Z,27.27
2023-04-29T12:28:39.714Z,27.27
2023-04-29T12:29:39.680Z,27.24
2023-04-29T12:30:39.675Z,27.26
2023-04-29T12:31:39.822Z,27.26
2023-04-29T12:32:39.731Z,27.27
2023-04-29T12:33:39.715Z,27.27
2023-04-29T12:34:39.752Z,27.26
2023-04-29T12:35:39.726Z,27.27
2023-04-29T12:36:39.746Z,27.30
2023-04-29T12:37:39.751Z,27.27
2023-04-29T12:38:39.777Z,27.29
2023-04-29T12:39:39.755Z,27.27
2023-04-29T12:40:39.889Z,27.27
2023-04-29T12:41:39.784Z,27.29
2023-04-29T12:42:39.811Z,27.27
2023-04-29T12:43:39.812Z,27.27
2023-04-29T12:44:39.829Z,27.30
2023-04-29T12:45:39.796Z,27.30
2023-04-29T12:46:39.849Z,27.29
2023-04-29T12:47:39.847Z,27.29
2023-04-29T12:48:39.875Z,27.29
2023-04-29T12:49:39.814Z,27.29
2023-04-29T12:50:39.842Z,27.29
2023-04-29T12:51:39.851Z,27.31
2023-04-29T12:52:39.858Z,27.29